Time;durP1;ratioP1;P1;durP2;ratioP2;P2;SDS_P1;SDS_P2;PMS_P1;PMS_P2;Temp;Humidity;BMP_temperature;BMP_pressure;BME280_temperature;BME280_humidity;BME280_pressure;Samples;Min_cycle;Max_cycle;Signal;HPM_P1;HPM_P2
2022/03/19 00:01:47;;;;;;;;;;;4.50;99.90;;;;;;5010404;28;19917;-85
2022/03/19 00:04:12;;;;;;;;;;;4.50;99.90;;;;;;5013130;28;19913;-86
2022/03/19 00:06:39;;;;;;;;;;;4.50;99.90;;;;;;4996101;28;19926;-85
2022/03/19 00:09:07;;;;;;;;;;;4.60;99.90;;;;;;5011211;28;19913;-86
2022/03/19 00:11:34;;;;;;;;;;;4.60;99.90;;;;;;5029536;28;20324;-86
2022/03/19 00:13:59;;;;;;;;;;;4.60;99.90;;;;;;4985797;28;20025;-85
2022/03/19 00:16:25;;;;;;;;;;;4.50;99.90;;;;;;4997768;28;20419;-86
2022/03/19 00:18:51;;;;;;;;;;;4.60;99.90;;;;;;5011485;28;20368;-84
2022/03/19 00:21:18;;;;;;;;;;;4.60;99.90;;;;;;5011719;28;19913;-85
2022/03/19 00:23:43;;;;;;;;;;;4.60;99.90;;;;;;4996153;28;19917;-86
2022/03/19 00:26:09;;;;;;;;;;;4.60;99.90;;;;;;5014354;28;19913;-85
2022/03/19 00:28:36;;;;;;;;;;;4.60;99.90;;;;;;5010900;28;20393;-86
2022/03/19 00:31:02;;;;;;;;;;;4.50;99.90;;;;;;5012320;28;19914;-87
2022/03/19 00:33:28;;;;;;;;;;;4.50;99.90;;;;;;5014535;28;19996;-87
2022/03/19 00:35:54;;;;;;;;;;;4.50;99.90;;;;;;4997822;28;20489;-84
2022/03/19 00:38:19;;;;;;;;;;;4.50;99.90;;;;;;5014574;28;19924;-85
2022/03/19 00:40:46;;;;;;;;;;;4.50;99.90;;;;;;5014144;28;19917;-86
2022/03/19 00:43:11;;;;;;;;;;;4.60;99.90;;;;;;5030847;28;19914;-86
2022/03/19 00:45:37;;;;;;;;;;;4.60;99.90;;;;;;5014010;28;20387;-87
2022/03/19 00:48:03;;;;;;;;;;;4.60;99.90;;;;;;5031820;28;20287;-84
2022/03/19 00:50:28;;;;;;;;;;;4.60;99.90;;;;;;5030779;28;19913;-85
2022/03/19 00:52:54;;;;;;;;;;;4.70;99.90;;;;;;4998331;28;19968;-85
2022/03/19 00:55:20;;;;;;;;;;;4.60;99.90;;;;;;4998229;28;19921;-86
2022/03/19 00:57:46;;;;;;;;;;;4.60;99.90;;;;;;4998308;28;19952;-85
2022/03/19 01:00:12;;;;;;;;;;;4.60;99.90;;;;;;4997833;28;20299;-85
2022/03/19 01:02:41;;;;;;;;;;;4.60;99.90;;;;;;5014846;28;19967;-85
2022/03/19 01:05:08;;;;;;;;;;;4.60;99.90;;;;;;5022307;28;19920;-86
2022/03/19 01:07:39;;;;;;;;;;;4.60;99.90;;;;;;5010760;28;20236;-89
2022/03/19 01:10:06;;;;;;;;;;;4.70;99.90;;;;;;5004644;28;19963;-86
2022/03/19 01:12:32;;;;;;;;;;;4.70;99.90;;;;;;5002249;28;20008;-86
2022/03/19 01:14:57;;;;;;;;;;;4.70;99.90;;;;;;5018217;28;19951;-86
2022/03/19 01:17:23;;;;;;;;;;;4.60;99.90;;;;;;5014524;28;19972;-86
2022/03/19 01:19:55;;;;;;;;;;;4.70;99.90;;;;;;4983801;28;19956;-85
2022/03/19 01:22:24;;;;;;;;;;;4.60;99.90;;;;;;4998525;28;19925;-85
2022/03/19 01:24:50;;;;;;;;;;;4.60;99.90;;;;;;4998436;28;20434;-87
2022/03/19 01:27:16;;;;;;;;;;;4.70;99.90;;;;;;4998235;28;19953;-85
2022/03/19 01:29:41;;;;;;;;;;;4.60;99.90;;;;;;4998199;28;19917;-86
2022/03/19 01:32:07;;;;;;;;;;;4.60;99.90;;;;;;5014576;28;20376;-86
2022/03/19 01:34:34;;;;;;;;;;;4.50;99.90;;;;;;5004279;28;19917;-88
2022/03/19 01:37:04;;;;;;;;;;;4.50;99.90;;;;;;5014545;28;19918;-87
2022/03/19 01:39:31;;;;;;;;;;;4.40;99.90;;;;;;4998254;28;19964;-86
2022/03/19 01:41:57;;;;;;;;;;;4.40;99.90;;;;;;4997861;28;19921;-86
2022/03/19 01:44:22;;;;;;;;;;;4.30;99.90;;;;;;5014598;28;20283;-87
2022/03/19 01:46:58;;;;;;;;;;;4.30;99.90;;;;;;5014434;28;19921;-86
2022/03/19 01:49:24;;;;;;;;;;;4.30;99.90;;;;;;4997506;28;20355;-84
2022/03/19 01:51:50;;;;;;;;;;;4.20;99.90;;;;;;4998040;28;19914;-85
2022/03/19 01:54:16;;;;;;;;;;;4.20;99.90;;;;;;4997743;28;19918;-85
2022/03/19 01:56:44;;;;;;;;;;;4.20;99.90;;;;;;4998051;28;20450;-86
2022/03/19 01:59:11;;;;;;;;;;;4.20;99.90;;;;;;4996427;28;19921;-87
2022/03/19 02:01:36;;;;;;;;;;;4.20;99.90;;;;;;4997118;28;19921;-86
2022/03/19 02:04:02;;;;;;;;;;;4.10;99.90;;;;;;5000962;28;19955;-85
2022/03/19 02:06:28;;;;;;;;;;;4.10;99.90;;;;;;5017016;28;20023;-86
2022/03/19 02:08:54;;;;;;;;;;;4.10;99.90;;;;;;5033025;28;19913;-87
2022/03/19 02:11:20;;;;;;;;;;;4.10;99.90;;;;;;5002217;28;19924;-86
2022/03/19 02:13:46;;;;;;;;;;;4.10;99.90;;;;;;5033765;28;19917;-85
2022/03/19 02:16:12;;;;;;;;;;;4.00;99.90;;;;;;5016900;28;19924;-86
2022/03/19 02:18:38;;;;;;;;;;;4.00;99.90;;;;;;4989746;28;19917;-86
2022/03/19 02:21:04;;;;;;;;;;;4.00;99.90;;;;;;4979789;28;19922;-86
2022/03/19 02:26:14;;;;;;;;;;;4.00;99.90;;;;;;5013482;28;19940;-87
2022/03/19 02:28:39;;;;;;;;;;;4.00;99.90;;;;;;4996857;28;20380;-85
2022/03/19 02:31:05;;;;;;;;;;;3.90;99.90;;;;;;4997304;28;20000;-86
2022/03/19 02:33:31;;;;;;;;;;;3.90;99.90;;;;;;5013729;28;19974;-87
2022/03/19 02:35:56;;;;;;;;;;;3.90;99.90;;;;;;4997136;28;19913;-87
2022/03/19 02:38:22;;;;;;;;;;;3.90;99.90;;;;;;4997094;28;20384;-85
2022/03/19 02:40:47;;;;;;;;;;;3.90;99.90;;;;;;4980741;28;19928;-85
2022/03/19 02:43:13;;;;;;;;;;;3.90;99.90;;;;;;4980862;28;19940;-86
2022/03/19 02:45:39;;;;;;;;;;;3.90;99.90;;;;;;4996718;28;19940;-86
2022/03/19 02:48:05;;;;;;;;;;;4.00;99.90;;;;;;4992987;28;19921;-87
2022/03/19 02:50:32;;;;;;;;;;;4.00;99.90;;;;;;4996972;28;20276;-85
2022/03/19 02:52:59;;;;;;;;;;;4.00;99.90;;;;;;4996789;28;19967;-85
2022/03/19 02:55:25;;;;;;;;;;;4.00;99.90;;;;;;5033028;28;19916;-85
2022/03/19 02:57:51;;;;;;;;;;;4.00;99.90;;;;;;5000128;28;19917;-86
2022/03/19 03:00:17;;;;;;;;;;;4.00;99.90;;;;;;5004484;28;19968;-85
2022/03/19 03:02:42;;;;;;;;;;;4.00;99.90;;;;;;5006372;28;20425;-86
2022/03/19 03:05:10;;;;;;;;;;;4.00;99.90;;;;;;5016514;28;19920;-86
2022/03/19 03:07:35;;;;;;;;;;;4.00;99.90;;;;;;5031985;28;20395;-86
2022/03/19 03:10:01;;;;;;;;;;;3.90;99.90;;;;;;5012603;28;19918;-87
2022/03/19 03:12:27;;;;;;;;;;;3.90;99.90;;;;;;4996344;28;20291;-86
2022/03/19 03:14:53;;;;;;;;;;;3.90;99.90;;;;;;4996340;28;19918;-86
2022/03/19 03:17:18;;;;;;;;;;;3.80;99.90;;;;;;5011968;28;19921;-86
2022/03/19 03:19:44;;;;;;;;;;;3.80;99.90;;;;;;4996293;28;19943;-87
2022/03/19 03:22:10;;;;;;;;;;;3.80;99.90;;;;;;4996166;28;19922;-86
2022/03/19 03:24:35;;;;;;;;;;;3.70;99.90;;;;;;4995958;28;19944;-87
2022/03/19 03:27:01;;;;;;;;;;;3.70;99.90;;;;;;5026828;28;20207;-86
2022/03/19 03:29:27;;;;;;;;;;;3.60;99.90;;;;;;5015248;28;20382;-86
2022/03/19 03:31:54;;;;;;;;;;;3.60;99.90;;;;;;5015549;28;19917;-87
2022/03/19 03:34:20;;;;;;;;;;;3.60;99.90;;;;;;5015481;28;20302;-86
2022/03/19 03:36:45;;;;;;;;;;;3.50;99.90;;;;;;5000758;28;20559;-87
2022/03/19 03:39:11;;;;;;;;;;;3.50;99.90;;;;;;4979225;28;19928;-87
2022/03/19 03:41:36;;;;;;;;;;;3.50;99.90;;;;;;4979063;28;20338;-86
2022/03/19 03:44:02;;;;;;;;;;;3.50;99.90;;;;;;4997109;28;19967;-87
2022/03/19 03:46:28;;;;;;;;;;;3.50;99.90;;;;;;4998496;28;19945;-86
2022/03/19 03:48:53;;;;;;;;;;;3.50;99.90;;;;;;4998625;28;20391;-86
2022/03/19 03:51:19;;;;;;;;;;;3.40;99.90;;;;;;5031623;28;19914;-87
2022/03/19 03:53:47;;;;;;;;;;;3.40;99.90;;;;;;5015180;28;20338;-87
2022/03/19 03:56:13;;;;;;;;;;;3.40;99.90;;;;;;5011743;28;19914;-87
2022/03/19 03:58:40;;;;;;;;;;;3.40;99.90;;;;;;5014659;28;19921;-88
2022/03/19 04:01:06;;;;;;;;;;;3.30;99.90;;;;;;5031462;28;19917;-85
2022/03/19 04:03:32;;;;;;;;;;;3.30;99.90;;;;;;4998754;28;19917;-86
2022/03/19 04:05:57;;;;;;;;;;;3.30;99.90;;;;;;5015215;28;19923;-86
2022/03/19 04:08:23;;;;;;;;;;;3.30;99.90;;;;;;5015181;28;19940;-86
2022/03/19 04:10:49;;;;;;;;;;;3.30;99.90;;;;;;5015014;28;20004;-87
2022/03/19 04:13:14;;;;;;;;;;;3.20;99.90;;;;;;4998698;28;20113;-86
2022/03/19 04:15:40;;;;;;;;;;;3.30;99.90;;;;;;5014907;28;19920;-86
2022/03/19 04:18:06;;;;;;;;;;;3.20;99.90;;;;;;5015021;28;19979;-86
2022/03/19 04:20:32;;;;;;;;;;;3.20;99.90;;;;;;4995010;28;19961;-87
2022/03/19 04:22:57;;;;;;;;;;;3.20;99.90;;;;;;5031296;23;20023;-77
2022/03/19 04:25:23;;;;;;;;;;;3.20;99.90;;;;;;5041064;28;19921;-77
2022/03/19 04:27:50;;;;;;;;;;;3.10;99.90;;;;;;5033995;28;19987;-77
2022/03/19 04:30:17;;;;;;;;;;;3.10;99.90;;;;;;5011721;28;19952;-77
2022/03/19 04:32:43;;;;;;;;;;;3.10;99.90;;;;;;5010107;28;19918;-78
2022/03/19 04:38:05;;;;;;;;;;;3.10;99.90;;;;;;5011607;28;19940;-78
2022/03/19 04:40:31;;;;;;;;;;;3.00;99.90;;;;;;5010573;28;20268;-77
2022/03/19 04:42:57;;;;;;;;;;;3.00;99.90;;;;;;5011602;28;19916;-79
2022/03/19 04:45:23;;;;;;;;;;;3.00;99.90;;;;;;5009320;28;19913;-77
2022/03/19 04:47:49;;;;;;;;;;;3.00;99.90;;;;;;5011329;28;19925;-77
2022/03/19 04:50:14;;;;;;;;;;;3.00;99.90;;;;;;4990691;28;19918;-78
2022/03/19 04:52:40;;;;;;;;;;;2.90;99.90;;;;;;5010287;28;19918;-77
2022/03/19 04:55:06;;;;;;;;;;;2.90;99.90;;;;;;5010842;28;19913;-79
2022/03/19 04:57:32;;;;;;;;;;;2.90;99.90;;;;;;4991614;28;19918;-77
2022/03/19 04:59:58;;;;;;;;;;;2.80;99.90;;;;;;5006970;28;20461;-78
2022/03/19 05:02:24;;;;;;;;;;;2.80;99.90;;;;;;4998616;28;19929;-78
2022/03/19 05:04:54;;;;;;;;;;;2.80;99.90;;;;;;5003716;28;19918;-77
2022/03/19 05:07:21;;;;;;;;;;;2.80;99.90;;;;;;5003257;28;19913;-79
2022/03/19 05:12:36;;;;;;;;;;;2.70;99.90;;;;;;5006345;28;19988;-76
2022/03/19 05:15:05;;;;;;;;;;;2.70;99.90;;;;;;4988245;28;19976;-78
2022/03/19 05:17:31;;;;;;;;;;;2.70;99.90;;;;;;5002924;28;19924;-77
2022/03/19 05:19:57;;;;;;;;;;;2.70;99.90;;;;;;5011003;28;19913;-77
2022/03/19 05:22:23;;;;;;;;;;;2.70;99.90;;;;;;5008427;28;19917;-76
2022/03/19 05:24:48;;;;;;;;;;;2.70;99.90;;;;;;5010561;28;19922;-77
2022/03/19 05:27:14;;;;;;;;;;;2.70;99.90;;;;;;5007179;28;20463;-78
2022/03/19 05:29:40;;;;;;;;;;;2.70;99.90;;;;;;5008574;28;19924;-78
2022/03/19 05:32:06;;;;;;;;;;;2.70;99.90;;;;;;5010943;28;20000;-76
2022/03/19 05:34:32;;;;;;;;;;;2.70;99.90;;;;;;5009630;28;19913;-77
2022/03/19 05:36:59;;;;;;;;;;;2.70;99.90;;;;;;5010476;28;19910;-78
2022/03/19 05:39:26;;;;;;;;;;;2.70;99.90;;;;;;4995058;28;20387;-79
2022/03/19 05:41:52;;;;;;;;;;;2.70;99.90;;;;;;4999150;28;19917;-77
2022/03/19 05:44:17;;;;;;;;;;;2.70;99.90;;;;;;5000105;28;19965;-76
2022/03/19 05:46:43;;;;;;;;;;;2.70;99.90;;;;;;5008633;28;19925;-79
2022/03/19 05:49:09;;;;;;;;;;;2.80;99.90;;;;;;4990697;28;19921;-77
2022/03/19 05:51:34;;;;;;;;;;;2.80;99.90;;;;;;5011715;28;19913;-78
2022/03/19 05:54:00;;;;;;;;;;;2.80;99.90;;;;;;5009533;28;19917;-77
2022/03/19 05:56:26;;;;;;;;;;;2.80;99.90;;;;;;5011287;28;20011;-77
2022/03/19 05:58:52;;;;;;;;;;;2.80;99.90;;;;;;5014361;28;19917;-78
2022/03/19 06:01:17;;;;;;;;;;;2.80;99.90;;;;;;5014637;28;19995;-79
2022/03/19 06:03:43;;;;;;;;;;;2.80;99.90;;;;;;5011463;28;20445;-78
2022/03/19 06:06:09;;;;;;;;;;;2.90;99.90;;;;;;4996497;28;19921;-77
2022/03/19 06:08:35;;;;;;;;;;;3.00;99.90;;;;;;4977025;28;20284;-77
2022/03/19 06:11:00;;;;;;;;;;;3.00;99.90;;;;;;5011875;28;19920;-77
2022/03/19 06:13:26;;;;;;;;;;;3.10;99.90;;;;;;5012946;28;19913;-78
2022/03/19 06:15:52;;;;;;;;;;;3.20;99.90;;;;;;5013776;28;19909;-79
2022/03/19 06:18:18;;;;;;;;;;;3.20;99.90;;;;;;5007326;28;19918;-78
2022/03/19 06:20:43;;;;;;;;;;;3.30;99.90;;;;;;5012746;28;19917;-78
2022/03/19 06:23:09;;;;;;;;;;;3.40;99.90;;;;;;4993411;28;19961;-78
2022/03/19 06:25:35;;;;;;;;;;;3.60;99.90;;;;;;4996644;28;20008;-78
2022/03/19 06:28:04;;;;;;;;;;;3.80;99.90;;;;;;4995558;28;19971;-76
2022/03/19 06:30:31;;;;;;;;;;;4.00;99.90;;;;;;5011175;28;20016;-78
2022/03/19 06:32:58;;;;;;;;;;;4.30;99.90;;;;;;5012961;28;20342;-76
2022/03/19 06:38:10;;;;;;;;;;;4.80;99.90;;;;;;5013213;28;19923;-77
2022/03/19 06:40:35;;;;;;;;;;;5.00;99.90;;;;;;4994665;28;19953;-77
2022/03/19 06:43:01;;;;;;;;;;;5.30;99.90;;;;;;5013257;28;19952;-77
2022/03/19 06:45:30;;;;;;;;;;;5.60;99.90;;;;;;5010982;28;19917;-77
2022/03/19 06:47:56;;;;;;;;;;;5.70;99.90;;;;;;5013207;28;20425;-77
2022/03/19 06:50:21;;;;;;;;;;;5.90;99.90;;;;;;5012514;28;19925;-78
2022/03/19 06:52:47;;;;;;;;;;;6.00;99.90;;;;;;5012004;28;19956;-76
2022/03/19 06:55:13;;;;;;;;;;;6.20;99.90;;;;;;5012422;28;20427;-78
2022/03/19 06:57:38;;;;;;;;;;;6.30;99.90;;;;;;5011625;28;19928;-78
2022/03/19 07:00:04;;;;;;;;;;;6.50;99.90;;;;;;5009128;28;19972;-78
2022/03/19 07:02:30;;;;;;;;;;;6.60;99.90;;;;;;5010099;28;19917;-77
2022/03/19 07:04:55;;;;;;;;;;;6.80;99.90;;;;;;5012157;28;19921;-79
2022/03/19 07:07:21;;;;;;;;;;;7.00;99.90;;;;;;5007904;28;20395;-78
2022/03/19 07:09:46;;;;;;;;;;;7.10;99.90;;;;;;5011311;28;19937;-77
2022/03/19 07:12:13;;;;;;;;;;;7.30;99.90;;;;;;5013225;28;19914;-77
2022/03/19 07:14:39;;;;;;;;;;;7.60;99.90;;;;;;5007757;28;19983;-78
2022/03/19 07:17:05;;;;;;;;;;;7.70;99.90;;;;;;5010266;28;20384;-78
2022/03/19 07:19:31;;;;;;;;;;;7.80;99.90;;;;;;5008246;28;19918;-77
2022/03/19 07:21:57;;;;;;;;;;;7.90;99.90;;;;;;5008771;28;20011;-78
2022/03/19 07:24:23;;;;;;;;;;;8.10;99.90;;;;;;5011883;28;20013;-78
2022/03/19 07:26:48;;;;;;;;;;;8.20;99.90;;;;;;5012675;28;20423;-76
2022/03/19 07:29:18;;;;;;;;;;;8.30;99.90;;;;;;5010850;28;20004;-78
2022/03/19 07:31:44;;;;;;;;;;;8.40;99.90;;;;;;5008526;28;19921;-78
2022/03/19 07:34:10;;;;;;;;;;;8.50;99.90;;;;;;5011536;28;19917;-77
2022/03/19 07:36:36;;;;;;;;;;;8.60;99.90;;;;;;4989383;28;19918;-77
2022/03/19 07:39:02;;;;;;;;;;;8.60;99.90;;;;;;5004734;28;19952;-78
2022/03/19 07:41:46;;;;;;;;;;;8.70;99.90;;;;;;5008332;28;19921;-77
2022/03/19 07:44:16;;;;;;;;;;;8.80;99.90;;;;;;5007045;28;19921;-77
2022/03/19 07:46:42;;;;;;;;;;;9.00;99.90;;;;;;5005059;28;19917;-78
2022/03/19 07:49:07;;;;;;;;;;;9.00;99.90;;;;;;5008304;28;20338;-78
2022/03/19 07:51:33;;;;;;;;;;;9.00;99.90;;;;;;5009749;28;19920;-77
2022/03/19 07:54:00;;;;;;;;;;;9.10;99.90;;;;;;4988587;28;19921;-77
2022/03/19 07:56:25;;;;;;;;;;;9.10;99.90;;;;;;5010975;28;20298;-78
2022/03/19 07:58:51;;;;;;;;;;;9.00;99.90;;;;;;4996874;28;19918;-78
2022/03/19 08:01:17;;;;;;;;;;;9.10;99.90;;;;;;5008631;28;19928;-78
2022/03/19 08:03:44;;;;;;;;;;;9.10;99.90;;;;;;5007999;28;19977;-78
2022/03/19 08:06:09;;;;;;;;;;;9.10;99.90;;;;;;5007322;28;20427;-78
2022/03/19 08:08:36;;;;;;;;;;;9.20;99.90;;;;;;5000605;28;19925;-79
2022/03/19 08:11:01;;;;;;;;;;;9.20;99.90;;;;;;5011409;28;19917;-77
2022/03/19 08:13:27;;;;;;;;;;;9.20;99.90;;;;;;5009197;28;20454;-78
2022/03/19 08:15:53;;;;;;;;;;;9.10;99.90;;;;;;5011655;28;19913;-78
2022/03/19 08:18:19;;;;;;;;;;;9.10;99.90;;;;;;4992166;28;20395;-78
2022/03/19 08:20:46;;;;;;;;;;;9.00;99.90;;;;;;5010829;28;19917;-77
2022/03/19 08:23:13;;;;;;;;;;;8.70;99.90;;;;;;5002943;28;20008;-79
2022/03/19 08:25:39;;;;;;;;;;;8.60;99.90;;;;;;5009637;28;20445;-78
2022/03/19 08:28:05;;;;;;;;;;;8.40;99.90;;;;;;5008311;28;19926;-78
2022/03/19 08:30:31;;;;;;;;;;;8.30;99.90;;;;;;4999185;28;19976;-77
2022/03/19 08:32:57;;;;;;;;;;;8.10;99.90;;;;;;5011312;28;19914;-78
2022/03/19 08:35:22;;;;;;;;;;;7.90;99.90;;;;;;5007890;28;20295;-77
2022/03/19 08:37:48;;;;;;;;;;;7.80;99.90;;;;;;4993851;28;20027;-77
2022/03/19 08:40:16;;;;;;;;;;;7.50;99.90;;;;;;5003525;28;19918;-78
2022/03/19 08:42:52;;;;;;;;;;;7.30;99.90;;;;;;5007087;28;19965;-78
2022/03/19 08:45:18;;;;;;;;;;;7.10;99.90;;;;;;5001721;28;19917;-77
2022/03/19 08:47:44;;;;;;;;;;;7.00;99.90;;;;;;5005332;28;19920;-77
2022/03/19 08:50:09;;;;;;;;;;;6.80;99.90;;;;;;4998974;28;20298;-78
2022/03/19 08:52:36;;;;;;;;;;;6.80;99.90;;;;;;5007043;28;19932;-77
2022/03/19 08:55:03;;;;;;;;;;;6.70;99.90;;;;;;5007533;28;19925;-77
2022/03/19 08:57:28;;;;;;;;;;;6.70;99.90;;;;;;5010829;28;20282;-77
2022/03/19 08:59:54;;;;;;;;;;;6.70;99.90;;;;;;5011030;28;19918;-78
2022/03/19 09:02:21;;;;;;;;;;;6.70;99.90;;;;;;4993033;28;19921;-77
2022/03/19 09:04:47;;;;;;;;;;;6.70;99.90;;;;;;5006935;28;20004;-78
2022/03/19 09:07:14;;;;;;;;;;;6.70;99.90;;;;;;5006803;28;19921;-77
2022/03/19 09:09:41;;;;;;;;;;;6.70;99.90;;;;;;5007973;28;19933;-77
2022/03/19 09:12:07;;;;;;;;;;;6.60;99.90;;;;;;4999677;28;19937;-78
2022/03/19 09:14:32;;;;;;;;;;;6.50;99.90;;;;;;5002656;28;20376;-77
2022/03/19 09:16:58;;;;;;;;;;;6.50;99.90;;;;;;5014697;28;19979;-78
2022/03/19 09:19:27;;;;;;;;;;;6.50;99.90;;;;;;5003083;28;19953;-77
2022/03/19 09:21:53;;;;;;;;;;;6.50;99.90;;;;;;5007462;28;20020;-77
2022/03/19 09:24:19;;;;;;;;;;;6.50;99.90;;;;;;4973875;28;20004;-78
2022/03/19 09:26:44;;;;;;;;;;;6.50;99.90;;;;;;5005829;28;20004;-77
2022/03/19 09:29:10;;;;;;;;;;;6.50;99.90;;;;;;4982322;28;19917;-77
2022/03/19 09:31:35;;;;;;;;;;;6.40;99.90;;;;;;4992559;28;20435;-77
2022/03/19 09:34:02;;;;;;;;;;;6.40;99.90;;;;;;5011805;28;20307;-79
2022/03/19 09:36:31;;;;;;;;;;;6.40;99.90;;;;;;4997173;28;20002;-78
2022/03/19 09:38:56;;;;;;;;;;;6.40;99.90;;;;;;5010276;28;19972;-77
2022/03/19 09:41:22;;;;;;;;;;;6.40;99.90;;;;;;5014646;28;19947;-77
2022/03/19 09:43:48;;;;;;;;;;;6.30;99.90;;;;;;5013281;28;20007;-78
2022/03/19 09:46:14;;;;;;;;;;;6.30;99.90;;;;;;5011633;28;20012;-78
2022/03/19 09:48:40;;;;;;;;;;;6.30;99.90;;;;;;5011577;28;19924;-77
2022/03/19 09:51:08;;;;;;;;;;;6.10;99.90;;;;;;5011154;28;19917;-77
2022/03/19 09:53:34;;;;;;;;;;;6.10;99.90;;;;;;5012487;28;20583;-77
2022/03/19 09:56:03;;;;;;;;;;;6.00;99.90;;;;;;5009849;28;19918;-79
2022/03/19 09:58:29;;;;;;;;;;;6.10;99.90;;;;;;5012678;28;20311;-78
2022/03/19 10:01:01;;;;;;;;;;;6.20;99.90;;;;;;5010496;28;19992;-78
2022/03/19 10:03:27;;;;;;;;;;;6.40;99.90;;;;;;5005488;28;19913;-77
2022/03/19 10:08:39;;;;;;;;;;;6.50;99.90;;;;;;5010230;28;20287;-79
2022/03/19 10:11:09;;;;;;;;;;;6.50;99.90;;;;;;5008800;28;19996;-80
2022/03/19 10:13:38;;;;;;;;;;;6.50;99.90;;;;;;5008555;28;19913;-79
2022/03/19 10:16:04;;;;;;;;;;;6.50;99.90;;;;;;5006876;28;20265;-78
2022/03/19 10:18:30;;;;;;;;;;;6.50;99.90;;;;;;5011418;28;19976;-78
2022/03/19 10:20:59;;;;;;;;;;;6.50;99.90;;;;;;5009490;28;22336;-79
2022/03/19 10:23:36;;;;;;;;;;;6.50;99.90;;;;;;5010324;28;19921;-79
2022/03/19 10:26:02;;;;;;;;;;;6.50;99.90;;;;;;5012807;28;19945;-78
2022/03/19 10:28:28;;;;;;;;;;;6.60;99.90;;;;;;5012121;28;19910;-78
2022/03/19 10:30:54;;;;;;;;;;;6.80;99.90;;;;;;5009341;28;19928;-79
2022/03/19 10:33:23;;;;;;;;;;;6.80;99.90;;;;;;5009223;28;20004;-79
2022/03/19 10:35:49;;;;;;;;;;;6.70;99.90;;;;;;5009928;28;20004;-79
2022/03/19 10:38:19;;;;;;;;;;;6.60;99.90;;;;;;5011718;28;19918;-79
2022/03/19 10:40:48;;;;;;;;;;;6.70;99.90;;;;;;5011679;28;20045;-79
2022/03/19 10:43:16;;;;;;;;;;;6.70;99.90;;;;;;5011385;28;19921;-80
2022/03/19 10:45:43;;;;;;;;;;;6.80;99.90;;;;;;4992432;28;19960;-80
2022/03/19 10:48:11;;;;;;;;;;;6.80;99.90;;;;;;5011972;28;19924;-79
2022/03/19 10:50:38;;;;;;;;;;;6.90;99.90;;;;;;4998587;28;19921;-79
2022/03/19 10:53:05;;;;;;;;;;;7.00;99.90;;;;;;5010521;28;20000;-80
2022/03/19 10:55:30;;;;;;;;;;;7.10;99.90;;;;;;5012257;28;19913;-78
2022/03/19 10:57:56;;;;;;;;;;;7.20;99.90;;;;;;5007861;28;19924;-78
2022/03/19 11:00:22;;;;;;;;;;;7.20;99.90;;;;;;5004384;28;20057;-78
2022/03/19 11:02:49;;;;;;;;;;;7.20;99.90;;;;;;5006372;28;19921;-78
2022/03/19 11:05:17;;;;;;;;;;;7.30;99.90;;;;;;5011722;28;19914;-78
2022/03/19 11:07:43;;;;;;;;;;;7.30;99.90;;;;;;5011098;28;19992;-78
2022/03/19 11:10:10;;;;;;;;;;;7.30;99.90;;;;;;5009664;28;20390;-77
2022/03/19 11:12:40;;;;;;;;;;;7.40;99.90;;;;;;5010313;28;19921;-77
2022/03/19 11:15:07;;;;;;;;;;;7.40;99.90;;;;;;5005680;28;19929;-78
2022/03/19 11:17:36;;;;;;;;;;;7.40;99.90;;;;;;4991204;28;19914;-77
2022/03/19 11:20:04;;;;;;;;;;;7.20;99.90;;;;;;4994825;28;19949;-77
2022/03/19 11:22:39;;;;;;;;;;;7.00;99.90;;;;;;5009906;28;19922;-78
2022/03/19 11:25:08;;;;;;;;;;;6.80;99.90;;;;;;5012323;28;19958;-78
2022/03/19 11:27:38;;;;;;;;;;;6.70;99.90;;;;;;4992087;28;20335;-77
2022/03/19 11:30:05;;;;;;;;;;;6.80;99.90;;;;;;5005025;28;19918;-77
2022/03/19 11:32:30;;;;;;;;;;;7.00;99.90;;;;;;5005400;28;19909;-77
2022/03/19 11:35:02;;;;;;;;;;;7.20;99.90;;;;;;5010318;28;19932;-78
2022/03/19 11:37:46;;;;;;;;;;;7.20;99.90;;;;;;5005010;28;19917;-77
2022/03/19 11:40:12;;;;;;;;;;;7.10;99.90;;;;;;5004592;28;20007;-78
2022/03/19 11:42:52;;;;;;;;;;;6.90;99.90;;;;;;5006122;28;19925;-78
2022/03/19 11:45:17;;;;;;;;;;;6.80;99.90;;;;;;5011025;28;20018;-77
2022/03/19 11:47:43;;;;;;;;;;;6.90;99.90;;;;;;5001732;28;19949;-77
2022/03/19 11:50:17;;;;;;;;;;;7.00;99.90;;;;;;4987233;28;20008;-77
2022/03/19 11:52:44;;;;;;;;;;;7.00;99.90;;;;;;5008908;28;19918;-78
2022/03/19 11:55:11;;;;;;;;;;;7.10;99.90;;;;;;5005797;28;19971;-77
2022/03/19 11:57:58;;;;;;;;;;;7.20;99.90;;;;;;5003672;28;19928;-77
2022/03/19 12:00:25;;;;;;;;;;;7.20;99.90;;;;;;5002372;28;19987;-77
2022/03/19 12:03:16;;;;;;;;;;;7.10;99.90;;;;;;5012252;28;20304;-78
2022/03/19 12:05:43;;;;;;;;;;;7.00;99.90;;;;;;5004294;28;19920;-77
2022/03/19 12:08:19;;;;;;;;;;;6.90;99.90;;;;;;5004176;28;19921;-77
2022/03/19 12:10:54;;;;;;;;;;;6.90;99.90;;;;;;5008221;28;19996;-77
2022/03/19 12:13:21;;;;;;;;;;;6.90;99.90;;;;;;5005613;28;19918;-78
2022/03/19 12:15:47;;;;;;;;;;;7.00;99.90;;;;;;5008796;28;20325;-78
2022/03/19 12:18:25;;;;;;;;;;;7.10;99.90;;;;;;5019756;28;19924;-78
2022/03/19 12:20:52;;;;;;;;;;;7.20;99.90;;;;;;5002160;28;19924;-77
2022/03/19 12:23:18;;;;;;;;;;;7.20;99.90;;;;;;5010071;28;19972;-78
2022/03/19 12:25:58;;;;;;;;;;;7.20;99.90;;;;;;5002224;28;22275;-78
2022/03/19 12:28:24;;;;;;;;;;;7.10;99.90;;;;;;5000761;28;19968;-77
2022/03/19 12:30:50;;;;;;;;;;;7.10;99.90;;;;;;5009190;28;19913;-78
2022/03/19 12:33:16;;;;;;;;;;;7.10;99.90;;;;;;5007440;28;19914;-78
2022/03/19 12:35:43;;;;;;;;;;;7.20;99.90;;;;;;5003868;28;20287;-78
2022/03/19 12:38:09;;;;;;;;;;;7.20;99.90;;;;;;5011188;28;19918;-77
2022/03/19 12:43:20;;;;;;;;;;;7.10;99.90;;;;;;5006421;28;19917;-77
2022/03/19 12:45:49;;;;;;;;;;;7.00;99.90;;;;;;5010195;28;19917;-78
2022/03/19 12:48:19;;;;;;;;;;;6.80;99.90;;;;;;5004053;28;20316;-78
2022/03/19 12:50:48;;;;;;;;;;;6.60;99.90;;;;;;5022610;28;20388;-79
2022/03/19 12:53:13;;;;;;;;;;;6.30;99.90;;;;;;4998286;28;20611;-79
2022/03/19 12:55:39;;;;;;;;;;;6.10;99.90;;;;;;5005539;28;19917;-79
2022/03/19 12:58:05;;;;;;;;;;;5.90;99.90;;;;;;5004712;28;19918;-78
2022/03/19 13:00:30;;;;;;;;;;;5.80;99.90;;;;;;5008417;28;19971;-79
2022/03/19 13:02:56;;;;;;;;;;;5.50;99.90;;;;;;5006214;28;19948;-78
2022/03/19 13:05:22;;;;;;;;;;;5.30;99.90;;;;;;5007886;28;20407;-78
2022/03/19 13:08:01;;;;;;;;;;;5.20;99.90;;;;;;5012047;28;19918;-78
2022/03/19 13:10:27;;;;;;;;;;;5.00;99.90;;;;;;5009452;28;20325;-79
2022/03/19 13:13:03;;;;;;;;;;;4.80;99.90;;;;;;5001201;28;20016;-79
2022/03/19 13:15:28;;;;;;;;;;;4.70;99.90;;;;;;5008886;28;20009;-79
2022/03/19 13:17:54;;;;;;;;;;;4.60;99.90;;;;;;5009214;28;20028;-78
2022/03/19 13:20:19;;;;;;;;;;;4.60;99.90;;;;;;5010615;28;19937;-78
2022/03/19 13:22:45;;;;;;;;;;;4.70;99.90;;;;;;5001068;28;19944;-78
2022/03/19 13:25:10;;;;;;;;;;;4.80;99.90;;;;;;5001778;28;19943;-78
2022/03/19 13:27:36;;;;;;;;;;;4.90;99.90;;;;;;5006935;28;20123;-78
2022/03/19 13:30:10;;;;;;;;;;;5.10;99.90;;;;;;5001269;28;20363;-78
2022/03/19 13:32:35;;;;;;;;;;;5.30;99.90;;;;;;5002076;28;19944;-79
2022/03/19 13:35:01;;;;;;;;;;;5.40;99.90;;;;;;5009352;28;19963;-78
2022/03/19 13:37:34;;;;;;;;;;;5.60;99.90;;;;;;5008531;28;19936;-80
2022/03/19 13:40:01;;;;;;;;;;;5.70;99.90;;;;;;5002835;28;19917;-79
2022/03/19 13:42:33;;;;;;;;;;;5.80;99.90;;;;;;5006237;28;19922;-78
2022/03/19 13:45:00;;;;;;;;;;;6.00;99.90;;;;;;5006991;28;19925;-78
2022/03/19 13:47:34;;;;;;;;;;;6.20;99.90;;;;;;5006785;28;19917;-80
2022/03/19 13:50:00;;;;;;;;;;;6.30;99.90;;;;;;4983475;28;19929;-79
2022/03/19 13:52:30;;;;;;;;;;;6.50;99.90;;;;;;4992994;28;19914;-79
2022/03/19 13:54:57;;;;;;;;;;;6.60;99.90;;;;;;5007700;28;19981;-79
2022/03/19 13:57:28;;;;;;;;;;;6.60;99.90;;;;;;5008905;28;20004;-79
2022/03/19 14:00:13;;;;;;;;;;;6.60;99.90;;;;;;5009554;28;20555;-79
2022/03/19 14:02:49;;;;;;;;;;;6.50;99.90;;;;;;4999402;28;19917;-79
2022/03/19 14:05:19;;;;;;;;;;;6.40;99.90;;;;;;5007813;28;19921;-77
2022/03/19 14:07:45;;;;;;;;;;;6.30;99.90;;;;;;5010958;28;19913;-77
2022/03/19 14:10:11;;;;;;;;;;;6.20;99.90;;;;;;5006308;28;19909;-76
2022/03/19 14:12:43;;;;;;;;;;;6.10;99.90;;;;;;5005873;28;19995;-77
2022/03/19 14:15:14;;;;;;;;;;;6.00;99.90;;;;;;5006226;28;19914;-78
2022/03/19 14:17:46;;;;;;;;;;;6.00;99.90;;;;;;5001249;28;19925;-76
2022/03/19 14:20:12;;;;;;;;;;;5.90;99.90;;;;;;5002586;28;19972;-76
2022/03/19 14:22:38;;;;;;;;;;;5.90;99.90;;;;;;5008740;28;19922;-77
2022/03/19 14:25:04;;;;;;;;;;;5.90;99.90;;;;;;5007931;28;19917;-78
2022/03/19 14:27:30;;;;;;;;;;;5.80;99.90;;;;;;5009562;28;19917;-77
2022/03/19 14:29:56;;;;;;;;;;;5.80;99.90;;;;;;5009130;28;20055;-76
2022/03/19 14:32:22;;;;;;;;;;;5.80;99.90;;;;;;5005201;28;19919;-77
2022/03/19 14:34:48;;;;;;;;;;;5.80;99.90;;;;;;5009407;28;19914;-76
2022/03/19 14:37:15;;;;;;;;;;;5.90;99.90;;;;;;5009479;28;19918;-77
2022/03/19 14:39:40;;;;;;;;;;;5.90;99.90;;;;;;5008694;28;20016;-76
2022/03/19 14:42:06;;;;;;;;;;;5.90;99.90;;;;;;5009478;28;19926;-76
2022/03/19 14:44:31;;;;;;;;;;;6.00;99.90;;;;;;5003352;28;19917;-78
2022/03/19 14:46:57;;;;;;;;;;;6.00;99.90;;;;;;5005716;28;19917;-75